createdAt,value
2022-10-03T00:02:06.664Z,101265.75
2022-10-03T00:05:31.037Z,101267.56
2022-10-03T00:08:58.595Z,101281.38
2022-10-03T00:12:16.025Z,101283.03
2022-10-03T00:15:28.448Z,101292.50
2022-10-03T00:19:09.305Z,101271.19
2022-10-03T00:22:27.263Z,101284.00
2022-10-03T00:25:39.933Z,101288.50
2022-10-03T00:29:04.348Z,101294.28
2022-10-03T00:32:48.164Z,101296.75
2022-10-03T00:36:04.143Z,101293.50
2022-10-03T00:39:44.888Z,101294.53
2022-10-03T00:43:32.102Z,101298.97
2022-10-03T00:47:22.859Z,101297.25
2022-10-03T00:50:56.922Z,101302.25
2022-10-03T00:54:15.860Z,101304.72
2022-10-03T00:57:55.355Z,101299.84
2022-10-03T01:01:21.529Z,101306.63
2022-10-03T01:04:43.151Z,101311.81
2022-10-03T01:08:09.947Z,101315.22
2022-10-03T01:11:27.908Z,101314.50
2022-10-03T01:15:10.423Z,101323.00
2022-10-03T01:18:33.143Z,101332.44
2022-10-03T01:21:48.869Z,101334.22
2022-10-03T01:25:00.634Z,101336.75
2022-10-03T01:28:48.276Z,101330.03
2022-10-03T01:31:58.947Z,101331.59
2022-10-03T01:35:17.879Z,101333.41
2022-10-03T01:38:29.067Z,101342.94
2022-10-03T01:41:39.257Z,101343.09
2022-10-03T01:45:02.375Z,101346.47
2022-10-03T01:48:13.223Z,101353.31
2022-10-03T01:51:23.474Z,101348.22
2022-10-03T01:54:36.303Z,101350.81
2022-10-03T01:57:46.759Z,101356.84
2022-10-03T02:01:00.669Z,101358.56
2022-10-03T02:04:16.331Z,101358.63
2022-10-03T02:07:29.808Z,101357.72
2022-10-03T02:10:45.146Z,101365.34
2022-10-03T02:13:53.027Z,101362.94
2022-10-03T02:17:06.180Z,101368.09
2022-10-03T02:20:23.801Z,101363.78
2022-10-03T02:23:45.331Z,101371.56
2022-10-03T02:27:45.044Z,101371.53
2022-10-03T02:31:38.092Z,101377.56
2022-10-03T02:35:42.994Z,101380.31
2022-10-03T02:39:28.699Z,101381.16
2022-10-03T02:43:18.011Z,101380.88
2022-10-03T02:47:14.250Z,101389.41
2022-10-03T02:50:54.163Z,101385.28
2022-10-03T02:55:05.407Z,101385.09
2022-10-03T02:59:21.084Z,101388.56
2022-10-03T03:03:20.392Z,101392.97
2022-10-03T03:07:10.631Z,101384.56
2022-10-03T03:10:39.899Z,101384.84
2022-10-03T03:14:39.204Z,101391.50
2022-10-03T03:17:51.553Z,101397.56
2022-10-03T03:21:14.604Z,101397.56
2022-10-03T03:24:44.344Z,101402.66
2022-10-03T03:28:02.211Z,101405.63
2022-10-03T03:31:13.369Z,101402.94
2022-10-03T03:34:25.802Z,101407.97
2022-10-03T03:37:40.418Z,101409.66
2022-10-03T03:40:58.025Z,101419.03
2022-10-03T03:44:46.179Z,101418.34
2022-10-03T03:48:24.304Z,101419.13
2022-10-03T03:51:38.980Z,101411.63
2022-10-03T03:55:15.179Z,101412.47
2022-10-03T03:58:33.468Z,101424.41
2022-10-03T04:01:53.307Z,101429.53
2022-10-03T04:05:12.622Z,101434.78
2022-10-03T04:08:35.584Z,101432.41
2022-10-03T04:11:56.316Z,101436.69
2022-10-03T04:15:51.122Z,101429.06
2022-10-03T04:19:03.038Z,101429.13
2022-10-03T04:22:33.147Z,101441.91
2022-10-03T04:25:56.092Z,101438.56
2022-10-03T04:29:45.663Z,101448.91
2022-10-03T04:33:05.587Z,101444.56
2022-10-03T04:37:09.643Z,101446.25
2022-10-03T04:40:29.197Z,101458.25
2022-10-03T04:43:43.865Z,101454.81
2022-10-03T04:46:56.128Z,101455.81
2022-10-03T04:50:08.802Z,101464.22
2022-10-03T04:53:41.063Z,101460.88
2022-10-03T04:56:54.037Z,101470.34
2022-10-03T05:00:12.711Z,101476.28
2022-10-03T05:03:34.995Z,101475.69
2022-10-03T05:06:58.342Z,101477.34
2022-10-03T05:10:27.800Z,101476.53
2022-10-03T05:13:44.943Z,101490.34
2022-10-03T05:16:56.504Z,101491.53
2022-10-03T05:20:22.508Z,101490.44
2022-10-03T05:23:43.098Z,101496.22
2022-10-03T05:26:59.080Z,101487.59
2022-10-03T05:30:09.097Z,101488.31
2022-10-03T05:33:26.182Z,101487.50
2022-10-03T05:36:41.991Z,101495.28
2022-10-03T05:39:56.829Z,101494.44
2022-10-03T05:43:23.836Z,101497.63
2022-10-03T05:47:00.796Z,101496.72
2022-10-03T05:51:01.692Z,101497.53
2022-10-03T05:54:48.364Z,101495.69
2022-10-03T05:58:29.563Z,101499.00
2022-10-03T06:02:14.006Z,101499.72
2022-10-03T06:05:32.329Z,101501.38
2022-10-03T06:09:19.897Z,101500.47
2022-10-03T06:12:30.620Z,101498.53
2022-10-03T06:15:54.716Z,101501.81
2022-10-03T06:19:16.833Z,101497.47
2022-10-03T06:23:08.937Z,101498.28
2022-10-03T06:26:56.043Z,101499.88
2022-10-03T06:30:17.947Z,101501.56
2022-10-03T06:34:10.020Z,101507.41
2022-10-03T06:38:09.463Z,101516.91
2022-10-03T06:41:43.142Z,101529.38
2022-10-03T06:45:46.614Z,101528.44
2022-10-03T06:49:50.123Z,101535.13
2022-10-03T06:53:40.270Z,101535.75
2022-10-03T06:57:12.862Z,101539.09
2022-10-03T07:00:20.036Z,101532.94
2022-10-03T07:04:06.341Z,101536.47
2022-10-03T07:07:50.520Z,101539.59
2022-10-03T07:11:15.334Z,101535.19
2022-10-03T07:15:08.075Z,101547.13
2022-10-03T07:18:57.494Z,101550.63
2022-10-03T07:23:01.727Z,101547.13
2022-10-03T07:27:12.436Z,101551.19
2022-10-03T07:30:19.824Z,101551.94
2022-10-03T07:33:41.668Z,101564.63
2022-10-03T07:37:24.193Z,101559.31
2022-10-03T07:40:58.761Z,101561.78
2022-10-03T07:44:50.710Z,101556.03
2022-10-03T07:48:50.872Z,101548.16
2022-10-03T07:52:23.479Z,101550.72
2022-10-03T07:55:53.692Z,101551.50
2022-10-03T07:59:21.823Z,101553.13
2022-10-03T08:03:30.260Z,101561.63
2022-10-03T08:06:42.370Z,101559.75
2022-10-03T08:10:05.163Z,101554.59
2022-10-03T08:13:28.210Z,101558.88
2022-10-03T08:17:15.348Z,101556.88
2022-10-03T08:20:43.887Z,101557.56
2022-10-03T08:24:27.611Z,101563.47
2022-10-03T08:27:47.499Z,101564.13
2022-10-03T08:31:31.075Z,101567.41
2022-10-03T08:35:09.831Z,101574.13
2022-10-03T08:38:55.164Z,101562.88
2022-10-03T08:42:47.924Z,101573.00
2022-10-03T08:46:07.241Z,101571.09
2022-10-03T08:49:34.168Z,101571.06
2022-10-03T08:53:09.439Z,101565.56
2022-10-03T08:56:17.723Z,101569.66
2022-10-03T09:00:11.312Z,101567.72
2022-10-03T09:04:03.709Z,101573.91
2022-10-03T09:07:36.022Z,101568.72
2022-10-03T09:11:30.332Z,101572.00
2022-10-03T09:15:18.399Z,101563.31
2022-10-03T09:18:58.620Z,101566.50
2022-10-03T09:22:38.018Z,101562.75
2022-10-03T09:26:05.756Z,101561.16
2022-10-03T09:29:47.008Z,101561.78
2022-10-03T09:33:51.566Z,101558.16
2022-10-03T09:37:40.483Z,101557.75
2022-10-03T09:41:32.432Z,101564.22
2022-10-03T09:45:22.152Z,101563.09
2022-10-03T09:49:07.495Z,101562.97
2022-10-03T09:52:28.180Z,101558.84
2022-10-03T09:55:42.114Z,101556.19
2022-10-03T09:59:06.412Z,101560.25
2022-10-03T10:02:41.894Z,101552.25
2022-10-03T10:06:25.169Z,101562.50
2022-10-03T10:10:05.447Z,101554.59
2022-10-03T10:13:49.834Z,101563.66
2022-10-03T10:17:45.122Z,101549.44
2022-10-03T10:21:38.073Z,101553.53
2022-10-03T10:25:09.763Z,101551.56
2022-10-03T10:28:44.389Z,101555.16
2022-10-03T10:32:52.692Z,101555.22
2022-10-03T10:36:57.435Z,101552.16
2022-10-03T10:40:47.172Z,101562.63
2022-10-03T10:44:57.837Z,101552.91
2022-10-03T10:49:07.791Z,101549.28
2022-10-03T10:53:03.833Z,101560.06
2022-10-03T10:56:52.960Z,101554.44
2022-10-03T11:00:22.936Z,101556.31
2022-10-03T11:04:14.867Z,101551.78
2022-10-03T11:08:04.381Z,101548.03
2022-10-03T11:12:00.122Z,101553.22
2022-10-03T11:16:08.985Z,101550.50
2022-10-03T11:20:06.443Z,101554.19
2022-10-03T11:24:13.196Z,101555.94
2022-10-03T11:28:16.698Z,101556.53
2022-10-03T11:32:09.724Z,101554.94
2022-10-03T11:36:05.549Z,101565.25
2022-10-03T11:39:17.311Z,101561.38
2022-10-03T11:42:33.453Z,101558.81
2022-10-03T11:45:45.726Z,101558.66
2022-10-03T11:48:55.592Z,101553.56
2022-10-03T11:52:14.722Z,101559.28
2022-10-03T11:55:30.019Z,101558.22
2022-10-03T11:58:55.544Z,101564.34
2022-10-03T12:02:14.806Z,101561.06
2022-10-03T12:05:28.378Z,101567.78
2022-10-03T12:08:54.096Z,101567.75
2022-10-03T12:12:05.139Z,101562.56
2022-10-03T12:15:25.933Z,101568.81
2022-10-03T12:18:50.342Z,101562.66
2022-10-03T12:21:58.287Z,101563.94
2022-10-03T12:25:16.160Z,101563.06
2022-10-03T12:28:25.112Z,101560.66
2022-10-03T12:31:36.192Z,101570.22
2022-10-03T12:34:44.015Z,101564.78
2022-10-03T12:38:15.295Z,101574.91
2022-10-03T12:41:32.880Z,101562.91
2022-10-03T12:44:49.080Z,101570.69
2022-10-03T12:48:28.058Z,101569.69
2022-10-03T12:51:49.218Z,101564.41
2022-10-03T12:55:16.737Z,101560.88
2022-10-03T12:58:32.330Z,101560.06
2022-10-03T13:01:54.058Z,101555.72
2022-10-03T13:05:31.163Z,101560.41
2022-10-03T13:09:09.470Z,101552.59
2022-10-03T13:12:27.678Z,101556.56
2022-10-03T13:15:55.021Z,101560.28
2022-10-03T13:19:06.578Z,101556.84
2022-10-03T13:22:29.967Z,101567.91
2022-10-03T13:25:41.502Z,101568.41
2022-10-03T13:29:13.226Z,101560.63
2022-10-03T13:32:31.152Z,101560.06
2022-10-03T13:35:59.802Z,101553.03
2022-10-03T13:39:19.599Z,101551.88
2022-10-03T13:42:36.255Z,101546.59
2022-10-03T13:45:45.378Z,101555.81
2022-10-03T13:49:02.003Z,101551.78
2022-10-03T13:52:17.988Z,101554.44
2022-10-03T13:55:36.299Z,101546.66
2022-10-03T13:58:47.760Z,101546.19
2022-10-03T14:02:01.838Z,101550.63
2022-10-03T14:05:45.531Z,101547.56
2022-10-03T14:09:10.616Z,101543.09
2022-10-03T14:12:38.202Z,101548.56
2022-10-03T14:15:55.851Z,101546.63
2022-10-03T14:19:11.271Z,101537.38
2022-10-03T14:22:29.357Z,101538.34
2022-10-03T14:25:38.687Z,101528.91
2022-10-03T14:28:49.652Z,101526.34
2022-10-03T14:32:01.314Z,101526.41
2022-10-03T14:35:19.341Z,101530.03
2022-10-03T14:39:02.307Z,101537.06
2022-10-03T14:42:42.250Z,101526.59
2022-10-03T14:45:50.601Z,101526.34
2022-10-03T14:48:59.934Z,101522.22
2022-10-03T14:52:12.219Z,101522.22
2022-10-03T14:55:27.674Z,101512.94
2022-10-03T14:58:39.748Z,101514.72
2022-10-03T15:01:50.685Z,101507.00
2022-10-03T15:04:57.300Z,101514.03
2022-10-03T15:08:14.997Z,101520.03
2022-10-03T15:11:28.212Z,101519.50
2022-10-03T15:14:36.709Z,101522.06
2022-10-03T15:17:47.972Z,101511.78
2022-10-03T15:20:55.691Z,101520.47
2022-10-03T15:24:03.327Z,101526.72
2022-10-03T15:27:20.224Z,101529.34
2022-10-03T15:30:31.609Z,101530.41
2022-10-03T15:33:38.950Z,101528.69
2022-10-03T15:36:49.102Z,101534.94
2022-10-03T15:39:54.283Z,101543.19
2022-10-03T15:43:09.296Z,101544.94
2022-10-03T15:46:22.950Z,101536.63
2022-10-03T15:49:31.442Z,101534.81
2022-10-03T15:52:41.495Z,101533.31
2022-10-03T15:55:50.662Z,101538.38
2022-10-03T15:59:01.188Z,101540.25
2022-10-03T16:02:16.820Z,101540.25
2022-10-03T16:05:25.586Z,101545.38
2022-10-03T16:08:32.389Z,101538.59
2022-10-03T16:11:45.493Z,101543.78
2022-10-03T16:14:57.030Z,101547.47
2022-10-03T16:18:05.011Z,101544.00
2022-10-03T16:21:14.839Z,101543.28
2022-10-03T16:24:29.843Z,101541.03
2022-10-03T16:27:37.523Z,101550.63
2022-10-03T16:30:49.487Z,101539.34
2022-10-03T16:33:58.908Z,101538.50
2022-10-03T16:37:06.975Z,101536.78
2022-10-03T16:40:22.340Z,101536.84
2022-10-03T16:43:27.740Z,101529.66
2022-10-03T16:46:36.512Z,101539.81
2022-10-03T16:50:03.771Z,101537.34
2022-10-03T16:53:11.365Z,101539.00
2022-10-03T16:56:20.336Z,101545.09
2022-10-03T16:59:26.463Z,101534.78
2022-10-03T17:02:33.173Z,101538.38
2022-10-03T17:05:45.161Z,101540.09
2022-10-03T17:08:52.967Z,101542.56
2022-10-03T17:12:00.718Z,101534.91
2022-10-03T17:15:09.611Z,101536.78
2022-10-03T17:18:26.190Z,101545.50
2022-10-03T17:21:33.371Z,101548.78
2022-10-03T17:24:45.532Z,101542.91
2022-10-03T17:27:52.094Z,101544.78
2022-10-03T17:30:59.472Z,101545.63
2022-10-03T17:34:15.906Z,101542.19
2022-10-03T17:37:46.155Z,101535.28
2022-10-03T17:41:02.619Z,101546.56
2022-10-03T17:44:21.039Z,101545.63
2022-10-03T17:47:31.416Z,101542.19
2022-10-03T17:50:43.815Z,101545.72
2022-10-03T17:53:57.386Z,101550.91
2022-10-03T17:57:08.757Z,101544.91
2022-10-03T18:00:21.098Z,101554.38
2022-10-03T18:03:34.247Z,101550.06
2022-10-03T18:06:47.137Z,101549.28
2022-10-03T18:09:54.663Z,101551.00
2022-10-03T18:13:02.088Z,101547.72
2022-10-03T18:16:22.097Z,101555.41
2022-10-03T18:19:44.907Z,101551.16
2022-10-03T18:22:59.522Z,101545.19
2022-10-03T18:26:19.545Z,101548.69
2022-10-03T18:29:30.897Z,101540.13
2022-10-03T18:32:39.809Z,101545.31
2022-10-03T18:35:47.622Z,101550.38
2022-10-03T18:38:57.847Z,101545.19
2022-10-03T18:42:04.142Z,101545.25
2022-10-03T18:45:20.991Z,101548.72
2022-10-03T18:48:33.720Z,101552.94
2022-10-03T18:51:41.354Z,101553.91
2022-10-03T18:54:57.434Z,101557.28
2022-10-03T18:58:10.068Z,101551.31
2022-10-03T19:01:20.659Z,101550.41
2022-10-03T19:04:38.274Z,101551.25
2022-10-03T19:07:50.262Z,101559.91
2022-10-03T19:11:01.486Z,101555.66
2022-10-03T19:14:11.963Z,101556.69
2022-10-03T19:17:25.595Z,101556.72
2022-10-03T19:20:35.065Z,101557.50
2022-10-03T19:23:41.450Z,101554.91
2022-10-03T19:26:52.294Z,101556.63
2022-10-03T19:29:58.249Z,101555.88
2022-10-03T19:33:07.631Z,101552.38
2022-10-03T19:36:20.095Z,101550.75
2022-10-03T19:39:26.519Z,101549.00
2022-10-03T19:42:40.176Z,101563.56
2022-10-03T19:45:49.065Z,101561.88
2022-10-03T19:49:19.843Z,101566.13
2022-10-03T19:52:30.188Z,101555.13
2022-10-03T19:55:37.339Z,101549.94
2022-10-03T19:58:46.642Z,101553.44
2022-10-03T20:01:51.950Z,101550.00
2022-10-03T20:04:58.965Z,101544.91
2022-10-03T20:08:17.440Z,101544.91
2022-10-03T20:11:35.542Z,101545.75
2022-10-03T20:14:43.875Z,101544.13
2022-10-03T20:17:48.888Z,101533.88
2022-10-03T20:20:56.303Z,101544.88
2022-10-03T20:24:02.654Z,101544.88
2022-10-03T20:27:32.844Z,101540.84
2022-10-03T20:30:45.225Z,101547.66
2022-10-03T20:33:50.457Z,101549.41
2022-10-03T20:37:09.455Z,101537.47
2022-10-03T20:40:35.355Z,101552.75
2022-10-03T20:43:44.327Z,101553.56
2022-10-03T20:46:53.041Z,101546.78
2022-10-03T20:50:01.905Z,101545.22
2022-10-03T20:53:20.679Z,101548.59
2022-10-03T20:56:31.935Z,101552.78
2022-10-03T20:59:46.778Z,101550.38
2022-10-03T21:02:58.316Z,101547.78
2022-10-03T21:06:04.232Z,101536.72
2022-10-03T21:09:09.277Z,101541.72
2022-10-03T21:12:20.607Z,101544.38
2022-10-03T21:15:38.033Z,101532.59
2022-10-03T21:18:47.467Z,101535.88
2022-10-03T21:21:55.847Z,101538.56
2022-10-03T21:25:02.896Z,101544.44
2022-10-03T21:28:25.312Z,101535.00
2022-10-03T21:31:38.406Z,101541.97
2022-10-03T21:34:50.833Z,101521.50
2022-10-03T21:38:06.284Z,101525.84
2022-10-03T21:41:28.063Z,101524.84
2022-10-03T21:44:54.681Z,101522.28
2022-10-03T21:48:05.603Z,101525.75
2022-10-03T21:51:26.731Z,101519.88
2022-10-03T21:54:40.463Z,101518.22
2022-10-03T21:57:57.601Z,101503.72
2022-10-03T22:01:13.274Z,101498.69
2022-10-03T22:04:24.528Z,101502.94
2022-10-03T22:07:39.023Z,101499.53
2022-10-03T22:10:58.447Z,101499.66
2022-10-03T22:14:16.096Z,101496.16
2022-10-03T22:17:29.276Z,101502.94
2022-10-03T22:20:35.990Z,101503.06
2022-10-03T22:23:50.904Z,101496.28
2022-10-03T22:27:01.537Z,101493.72
2022-10-03T22:30:09.494Z,101500.06
2022-10-03T22:33:23.807Z,101500.75
2022-10-03T22:36:30.045Z,101494.91
2022-10-03T22:39:37.063Z,101493.25
2022-10-03T22:42:46.179Z,101488.22
2022-10-03T22:45:53.884Z,101480.75
2022-10-03T22:49:04.611Z,101476.53
2022-10-03T22:52:17.539Z,101475.50
2022-10-03T22:55:25.777Z,101479.94
2022-10-03T22:58:32.343Z,101472.34
2022-10-03T23:01:38.235Z,101471.44
2022-10-03T23:04:49.207Z,101468.91
2022-10-03T23:08:05.147Z,101463.75
2022-10-03T23:11:20.586Z,101467.16
2022-10-03T23:14:28.509Z,101467.09
2022-10-03T23:18:03.740Z,101473.03
2022-10-03T23:21:10.397Z,101473.03
2022-10-03T23:24:24.183Z,101473.06
2022-10-03T23:27:47.815Z,101472.28
2022-10-03T23:30:54.312Z,101467.13
2022-10-03T23:33:59.357Z,101481.94
2022-10-03T23:37:43.052Z,101475.28
2022-10-03T23:40:50.934Z,101474.44
2022-10-03T23:43:59.708Z,101473.56
2022-10-03T23:47:06.439Z,101483.72
2022-10-03T23:50:24.644Z,101476.09
2022-10-03T23:53:34.679Z,101476.25
2022-10-03T23:56:42.531Z,101468.44
2022-10-03T23:59:49.535Z,101472.03
